Time;durP1;ratioP1;P1;durP2;ratioP2;P2;SDS_P1;SDS_P2;PMS_P1;PMS_P2;Temp;Humidity;BMP_temperature;BMP_pressure;BME280_temperature;BME280_humidity;BME280_pressure;Samples;Min_cycle;Max_cycle;Signal;HPM_P1;HPM_P2
2022/04/11 00:00:03;;;;;;;8.25;2.60;;;;;;;;;;5071121;28;20583;-78
2022/04/11 00:02:29;;;;;;;7.78;2.63;;;;;;;;;;5070173;28;20044;-78
2022/04/11 00:04:55;;;;;;;6.18;2.78;;;;;;;;;;5053256;28;20032;-76
2022/04/11 00:07:21;;;;;;;4.38;2.60;;;;;;;;;;5053586;28;20123;-78
2022/04/11 00:09:48;;;;;;;7.00;2.55;;;;;;;;;;5069881;28;20037;-78
2022/04/11 00:12:14;;;;;;;7.93;2.75;;;;;;;;;;5070515;28;20087;-78
2022/04/11 00:14:40;;;;;;;5.55;2.67;;;;;;;;;;5069578;28;20432;-78
2022/04/11 00:17:06;;;;;;;6.35;3.40;;;;;;;;;;5069652;28;20040;-78
2022/04/11 00:19:32;;;;;;;6.13;3.22;;;;;;;;;;5069647;28;20131;-78
2022/04/11 00:21:58;;;;;;;7.07;3.33;;;;;;;;;;5052824;28;20036;-78
2022/04/11 00:24:24;;;;;;;7.95;3.45;;;;;;;;;;5070005;28;20478;-78
2022/04/11 00:26:50;;;;;;;9.20;3.53;;;;;;;;;;5052882;28;20085;-78
2022/04/11 00:29:16;;;;;;;7.32;3.30;;;;;;;;;;5069818;28;20044;-76
2022/04/11 00:31:42;;;;;;;7.47;3.55;;;;;;;;;;5052825;28;20571;-76
2022/04/11 00:34:08;;;;;;;5.68;2.67;;;;;;;;;;5053045;28;20499;-76
2022/04/11 00:36:34;;;;;;;7.13;3.30;;;;;;;;;;5069719;28;20111;-76
2022/04/11 00:39:00;;;;;;;9.45;4.00;;;;;;;;;;5069318;28;20039;-76
2022/04/11 00:41:26;;;;;;;7.35;3.83;;;;;;;;;;5069409;28;20510;-78
2022/04/11 00:43:53;;;;;;;6.80;3.42;;;;;;;;;;5068557;28;20554;-78
2022/04/11 00:46:19;;;;;;;6.85;3.70;;;;;;;;;;5069212;28;20127;-78
2022/04/11 00:48:45;;;;;;;5.70;3.42;;;;;;;;;;5035672;28;20083;-78
2022/04/11 00:51:15;;;;;;;6.35;3.90;;;;;;;;;;5070029;28;20468;-78
2022/04/11 00:53:42;;;;;;;8.52;3.92;;;;;;;;;;5051888;28;20047;-78
2022/04/11 00:56:11;;;;;;;4.22;2.90;;;;;;;;;;5069277;28;20086;-78
2022/04/11 00:58:38;;;;;;;5.70;2.60;;;;;;;;;;5068929;28;20044;-78
2022/04/11 01:01:06;;;;;;;5.25;2.30;;;;;;;;;;5069584;28;20090;-77
2022/04/11 01:03:33;;;;;;;5.15;2.58;;;;;;;;;;5068922;28;20040;-78
2022/04/11 01:05:59;;;;;;;7.38;2.55;;;;;;;;;;5068768;28;20044;-78
2022/04/11 01:08:25;;;;;;;6.93;2.88;;;;;;;;;;5068924;28;20098;-77
2022/04/11 01:10:54;;;;;;;4.75;2.30;;;;;;;;;;5052353;28;20079;-78
2022/04/11 01:13:20;;;;;;;4.43;2.60;;;;;;;;;;5069426;28;20050;-78
2022/04/11 01:16:00;;;;;;;5.63;2.67;;;;;;;;;;5052305;28;20495;-76
2022/04/11 01:18:26;;;;;;;7.68;2.95;;;;;;;;;;5051918;28;20044;-76
2022/04/11 01:20:52;;;;;;;5.78;2.75;;;;;;;;;;5034862;28;20045;-76
2022/04/11 01:23:18;;;;;;;5.07;2.72;;;;;;;;;;5051982;28;20060;-76
2022/04/11 01:25:51;;;;;;;4.88;2.90;;;;;;;;;;5069620;28;20148;-77
2022/04/11 01:28:18;;;;;;;4.55;2.47;;;;;;;;;;5068652;28;20036;-77
2022/04/11 01:30:44;;;;;;;5.40;2.60;;;;;;;;;;5068330;28;20036;-76
2022/04/11 01:33:20;;;;;;;7.15;2.88;;;;;;;;;;5068344;28;20101;-77
2022/04/11 01:35:46;;;;;;;7.30;2.80;;;;;;;;;;5068464;28;20040;-76
2022/04/11 01:38:13;;;;;;;5.53;2.80;;;;;;;;;;5068656;28;20036;-77
2022/04/11 01:40:46;;;;;;;6.20;2.80;;;;;;;;;;5068780;28;20474;-76
2022/04/11 01:43:13;;;;;;;4.93;2.38;;;;;;;;;;5051579;28;20041;-77
2022/04/11 01:45:39;;;;;;;7.22;2.83;;;;;;;;;;5051800;28;20048;-77
2022/04/11 01:48:05;;;;;;;6.53;2.90;;;;;;;;;;5068306;28;20613;-77
2022/04/11 01:50:31;;;;;;;7.22;3.00;;;;;;;;;;5068282;28;20400;-76
2022/04/11 01:53:04;;;;;;;6.18;2.90;;;;;;;;;;5068174;28;20126;-77
2022/04/11 01:55:30;;;;;;;6.05;2.85;;;;;;;;;;5065928;28;20392;-77
2022/04/11 01:57:56;;;;;;;9.73;3.17;;;;;;;;;;5067465;28;20044;-77
2022/04/11 02:00:22;;;;;;;8.02;3.15;;;;;;;;;;5068725;28;20116;-77
2022/04/11 02:02:49;;;;;;;6.07;3.15;;;;;;;;;;5063748;28;20387;-77
2022/04/11 02:05:15;;;;;;;5.72;3.00;;;;;;;;;;5050670;28;20040;-77
2022/04/11 02:07:41;;;;;;;6.35;3.00;;;;;;;;;;5067541;28;20059;-77
2022/04/11 02:10:07;;;;;;;6.47;2.88;;;;;;;;;;5068258;28;20036;-77
2022/04/11 02:12:33;;;;;;;6.00;3.00;;;;;;;;;;5069863;28;20484;-77
2022/04/11 02:14:59;;;;;;;4.88;3.08;;;;;;;;;;5069602;28;20043;-77
2022/04/11 02:17:26;;;;;;;4.95;2.90;;;;;;;;;;5072369;28;20116;-77
2022/04/11 02:19:52;;;;;;;6.15;2.80;;;;;;;;;;5071357;28;20044;-77
2022/04/11 02:22:18;;;;;;;6.88;3.05;;;;;;;;;;5072164;28;20093;-77
2022/04/11 02:24:44;;;;;;;7.10;3.70;;;;;;;;;;5055158;28;20136;-76
2022/04/11 02:27:10;;;;;;;6.35;3.40;;;;;;;;;;5072326;28;20480;-77
2022/04/11 02:29:36;;;;;;;9.48;3.65;;;;;;;;;;5072262;28;20547;-77
2022/04/11 02:32:02;;;;;;;6.25;3.08;;;;;;;;;;5069910;28;20032;-77
2022/04/11 02:34:29;;;;;;;8.60;3.40;;;;;;;;;;5070029;28;20135;-77
2022/04/11 02:36:55;;;;;;;6.18;3.08;;;;;;;;;;5072199;28;20135;-76
2022/04/11 02:39:21;;;;;;;8.30;3.42;;;;;;;;;;5072723;28;20064;-76
2022/04/11 02:41:48;;;;;;;5.32;3.20;;;;;;;;;;5072296;28;20051;-77
2022/04/11 02:44:15;;;;;;;10.63;3.30;;;;;;;;;;5071125;28;20060;-77
2022/04/11 02:46:44;;;;;;;5.70;3.00;;;;;;;;;;5054277;28;20056;-76
2022/04/11 02:49:10;;;;;;;6.05;3.22;;;;;;;;;;5070967;28;20074;-77
2022/04/11 02:51:36;;;;;;;5.90;3.10;;;;;;;;;;5055161;28;20032;-76
2022/04/11 02:54:07;;;;;;;6.28;3.15;;;;;;;;;;5071220;28;20036;-77
2022/04/11 02:56:34;;;;;;;7.45;3.53;;;;;;;;;;5071429;28;20385;-77
2022/04/11 02:59:00;;;;;;;10.57;3.58;;;;;;;;;;5072616;28;20040;-77
2022/04/11 03:01:26;;;;;;;6.65;2.90;;;;;;;;;;5054965;28;20041;-76
2022/04/11 03:03:52;;;;;;;6.35;3.30;;;;;;;;;;5054611;28;20510;-77
2022/04/11 03:06:18;;;;;;;6.28;3.17;;;;;;;;;;5072588;28;20442;-77
2022/04/11 03:08:44;;;;;;;5.15;3.20;;;;;;;;;;5070810;28;20068;-77
2022/04/11 03:11:10;;;;;;;6.28;3.45;;;;;;;;;;5071303;28;20036;-77
2022/04/11 03:13:36;;;;;;;7.35;3.50;;;;;;;;;;5054525;28;20036;-77
2022/04/11 03:16:02;;;;;;;6.47;3.70;;;;;;;;;;5054337;28;20064;-77
2022/04/11 03:18:28;;;;;;;7.18;3.90;;;;;;;;;;5054608;28;20504;-77
2022/04/11 03:20:54;;;;;;;7.85;3.88;;;;;;;;;;5070630;28;20499;-77
2022/04/11 03:23:20;;;;;;;7.63;3.90;;;;;;;;;;5070905;28;20399;-77
2022/04/11 03:25:46;;;;;;;7.90;3.97;;;;;;;;;;5070234;28;20093;-77
2022/04/11 03:28:12;;;;;;;8.40;4.10;;;;;;;;;;5070628;28;20052;-77
2022/04/11 03:30:38;;;;;;;7.68;4.05;;;;;;;;;;5072287;28;20250;-77
2022/04/11 03:33:05;;;;;;;9.20;3.92;;;;;;;;;;5071028;28;20407;-77
2022/04/11 03:35:31;;;;;;;7.82;4.05;;;;;;;;;;5071032;28;20442;-77
2022/04/11 03:37:57;;;;;;;8.27;3.78;;;;;;;;;;5070448;28;20040;-77
2022/04/11 03:40:24;;;;;;;8.82;4.07;;;;;;;;;;5070498;28;20052;-77
2022/04/11 03:42:50;;;;;;;8.65;4.13;;;;;;;;;;5070097;28;20036;-77
2022/04/11 03:45:17;;;;;;;7.70;3.97;;;;;;;;;;5054367;28;20098;-77
2022/04/11 03:47:43;;;;;;;5.55;3.25;;;;;;;;;;5070057;28;20055;-77
2022/04/11 03:50:09;;;;;;;6.78;4.22;;;;;;;;;;5053586;28;20048;-77
2022/04/11 03:52:35;;;;;;;7.97;4.05;;;;;;;;;;5070216;28;20045;-77
2022/04/11 03:55:03;;;;;;;7.50;4.40;;;;;;;;;;5070542;28;20534;-77
2022/04/11 03:57:29;;;;;;;6.60;3.25;;;;;;;;;;5053737;28;20159;-77
2022/04/11 03:59:56;;;;;;;8.38;4.22;;;;;;;;;;5071398;28;20507;-77
2022/04/11 04:02:22;;;;;;;7.38;3.90;;;;;;;;;;5049037;28;20502;-77
2022/04/11 04:04:48;;;;;;;7.60;3.70;;;;;;;;;;5052595;28;20480;-77
2022/04/11 04:07:14;;;;;;;7.25;3.63;;;;;;;;;;5069343;28;20041;-77
2022/04/11 04:09:40;;;;;;;6.65;4.28;;;;;;;;;;5053231;28;20094;-77
2022/04/11 04:12:06;;;;;;;6.75;4.00;;;;;;;;;;5070359;28;20033;-77
2022/04/11 04:14:32;;;;;;;8.48;4.30;;;;;;;;;;5070278;28;20123;-77
2022/04/11 04:16:58;;;;;;;8.05;4.03;;;;;;;;;;5069766;28;20037;-77
2022/04/11 04:19:25;;;;;;;12.98;4.50;;;;;;;;;;5036649;28;20140;-77
2022/04/11 04:21:51;;;;;;;8.20;3.75;;;;;;;;;;5070775;28;20135;-77
2022/04/11 04:24:22;;;;;;;7.80;4.05;;;;;;;;;;5069724;28;20320;-77
2022/04/11 04:26:49;;;;;;;7.50;4.15;;;;;;;;;;5053018;28;20040;-77
2022/04/11 04:29:18;;;;;;;8.55;4.13;;;;;;;;;;5069627;28;20186;-77
2022/04/11 04:31:44;;;;;;;9.00;4.07;;;;;;;;;;5069516;28;20068;-77
2022/04/11 04:34:10;;;;;;;6.68;4.00;;;;;;;;;;5068942;28;20125;-77
2022/04/11 04:36:36;;;;;;;7.63;3.95;;;;;;;;;;5052803;28;20036;-77
2022/04/11 04:39:03;;;;;;;9.05;4.18;;;;;;;;;;5052797;28;20036;-77
2022/04/11 04:41:29;;;;;;;10.50;3.95;;;;;;;;;;5053136;28;20044;-78
2022/04/11 04:43:55;;;;;;;6.60;3.50;;;;;;;;;;5068880;28;20294;-77
2022/04/11 04:46:21;;;;;;;7.10;4.00;;;;;;;;;;5069482;28;20125;-77
2022/04/11 04:48:47;;;;;;;7.45;3.75;;;;;;;;;;5052631;28;20080;-77
2022/04/11 04:51:14;;;;;;;7.25;3.58;;;;;;;;;;5069234;28;20162;-77
2022/04/11 04:53:40;;;;;;;7.53;3.88;;;;;;;;;;5069069;28;20048;-77
2022/04/11 04:56:06;;;;;;;8.95;3.88;;;;;;;;;;5069283;28;20430;-77
2022/04/11 04:58:32;;;;;;;6.90;3.70;;;;;;;;;;5069074;28;20127;-77
2022/04/11 05:00:58;;;;;;;7.78;4.10;;;;;;;;;;5052254;28;20040;-77
2022/04/11 05:03:24;;;;;;;9.88;4.40;;;;;;;;;;5069211;28;20044;-77
2022/04/11 05:05:50;;;;;;;6.15;3.58;;;;;;;;;;5069290;28;20040;-77
2022/04/11 05:08:16;;;;;;;9.38;3.90;;;;;;;;;;5051675;28;20044;-78
2022/04/11 05:10:42;;;;;;;10.13;3.63;;;;;;;;;;5068352;28;20047;-78
2022/04/11 05:13:08;;;;;;;10.10;4.30;;;;;;;;;;5052517;28;20036;-79
2022/04/11 05:15:34;;;;;;;7.78;3.60;;;;;;;;;;5052588;28;20089;-79
2022/04/11 05:18:00;;;;;;;7.95;3.63;;;;;;;;;;5068667;28;20720;-78
2022/04/11 05:20:26;;;;;;;10.43;3.97;;;;;;;;;;5052286;28;20063;-78
2022/04/11 05:22:53;;;;;;;7.60;3.70;;;;;;;;;;5051777;28;20140;-79
2022/04/11 05:25:19;;;;;;;13.40;4.88;;;;;;;;;;5068696;28;20040;-78
2022/04/11 05:27:45;;;;;;;11.50;3.92;;;;;;;;;;5051683;28;20044;-79
2022/04/11 05:30:11;;;;;;;8.90;3.58;;;;;;;;;;5068502;28;20043;-79
2022/04/11 05:32:37;;;;;;;9.77;3.50;;;;;;;;;;5052097;28;20050;-79
2022/04/11 05:35:04;;;;;;;6.32;4.00;;;;;;;;;;5068493;28;20045;-79
2022/04/11 05:37:30;;;;;;;9.23;3.67;;;;;;;;;;5068575;28;20437;-79
2022/04/11 05:39:56;;;;;;;5.85;3.50;;;;;;;;;;5051492;28;20127;-79
2022/04/11 05:42:22;;;;;;;9.52;4.30;;;;;;;;;;5068546;28;20147;-79
2022/04/11 05:44:48;;;;;;;7.25;4.25;;;;;;;;;;5050969;28;20083;-79
2022/04/11 05:47:14;;;;;;;9.02;4.70;;;;;;;;;;5067996;28;20205;-79
2022/04/11 05:49:40;;;;;;;10.68;4.43;;;;;;;;;;5068345;28;20091;-79
2022/04/11 05:52:07;;;;;;;7.00;3.30;;;;;;;;;;5068348;28;20024;-79
2022/04/11 05:54:38;;;;;;;6.72;4.15;;;;;;;;;;5068525;28;20476;-79
2022/04/11 05:57:05;;;;;;;8.27;3.72;;;;;;;;;;5068266;28;20036;-79
2022/04/11 05:59:31;;;;;;;7.75;4.20;;;;;;;;;;5068126;28;20044;-79
2022/04/11 06:01:57;;;;;;;7.93;4.40;;;;;;;;;;5068125;28;20123;-79
2022/04/11 06:04:23;;;;;;;8.40;4.10;;;;;;;;;;5052021;28;20052;-79
2022/04/11 06:06:49;;;;;;;6.65;4.15;;;;;;;;;;5067949;28;20048;-79
2022/04/11 06:09:15;;;;;;;8.27;4.10;;;;;;;;;;5068063;28;20522;-79
2022/04/11 06:11:41;;;;;;;6.90;3.97;;;;;;;;;;5068158;28;20045;-79
2022/04/11 06:14:08;;;;;;;10.65;4.63;;;;;;;;;;5051750;28;20075;-79
2022/04/11 06:16:34;;;;;;;8.45;4.38;;;;;;;;;;5068171;28;20040;-78
2022/04/11 06:19:00;;;;;;;8.93;4.03;;;;;;;;;;5067869;28;20041;-78
2022/04/11 06:21:26;;;;;;;9.77;4.35;;;;;;;;;;5067907;28;20671;-79
2022/04/11 06:23:52;;;;;;;9.82;4.05;;;;;;;;;;5067513;28;20072;-78
2022/04/11 06:26:18;;;;;;;10.32;4.10;;;;;;;;;;5068191;28;20051;-78
2022/04/11 06:28:44;;;;;;;9.40;4.10;;;;;;;;;;5067397;28;20535;-78
2022/04/11 06:31:11;;;;;;;8.40;4.15;;;;;;;;;;5069213;28;20048;-78
2022/04/11 06:33:37;;;;;;;7.05;4.22;;;;;;;;;;5051354;28;20048;-78
2022/04/11 06:36:04;;;;;;;8.43;4.80;;;;;;;;;;5067915;28;20391;-79
2022/04/11 06:38:30;;;;;;;7.63;4.03;;;;;;;;;;5067638;28;20423;-78
2022/04/11 06:40:56;;;;;;;13.93;4.47;;;;;;;;;;5064925;28;20094;-78
2022/04/11 06:43:23;;;;;;;8.45;4.38;;;;;;;;;;5068059;28;20447;-79
2022/04/11 06:45:49;;;;;;;7.30;4.10;;;;;;;;;;5067791;28;20056;-79
2022/04/11 06:48:15;;;;;;;10.43;4.43;;;;;;;;;;5067882;28;20040;-78
2022/04/11 06:50:42;;;;;;;8.10;4.65;;;;;;;;;;5068850;28;20053;-78
2022/04/11 06:53:09;;;;;;;8.38;4.40;;;;;;;;;;5067902;28;20036;-78
2022/04/11 06:55:36;;;;;;;7.88;4.05;;;;;;;;;;5067618;28;20047;-78
2022/04/11 06:58:02;;;;;;;10.10;4.88;;;;;;;;;;5053604;28;20344;-78
2022/04/11 07:00:29;;;;;;;9.18;4.10;;;;;;;;;;5071571;28;20168;-78
2022/04/11 07:02:55;;;;;;;8.80;4.30;;;;;;;;;;5054989;28;20093;-79
2022/04/11 07:05:21;;;;;;;7.18;4.43;;;;;;;;;;5071392;28;20515;-79
2022/04/11 07:07:47;;;;;;;7.25;4.35;;;;;;;;;;5054424;28;20041;-79
2022/04/11 07:10:13;;;;;;;9.32;4.40;;;;;;;;;;5072760;28;20082;-79
2022/04/11 07:12:40;;;;;;;8.48;4.45;;;;;;;;;;5071659;28;20403;-79
2022/04/11 07:15:06;;;;;;;10.50;4.82;;;;;;;;;;5070811;28;20032;-79
2022/04/11 07:17:32;;;;;;;8.40;4.40;;;;;;;;;;5071574;28;20040;-78
2022/04/11 07:19:59;;;;;;;8.25;4.55;;;;;;;;;;5053956;28;20036;-77
2022/04/11 07:22:25;;;;;;;12.88;4.15;;;;;;;;;;5071390;28;20045;-77
2022/04/11 07:24:51;;;;;;;9.30;4.38;;;;;;;;;;5054288;28;20051;-78
2022/04/11 07:27:17;;;;;;;10.52;4.28;;;;;;;;;;5071354;28;20048;-78
2022/04/11 07:29:44;;;;;;;8.82;4.38;;;;;;;;;;5070779;28;20062;-78
2022/04/11 07:32:10;;;;;;;9.93;4.45;;;;;;;;;;5070993;28;20086;-77
2022/04/11 07:34:36;;;;;;;9.25;4.55;;;;;;;;;;5070830;28;20068;-78
2022/04/11 07:37:03;;;;;;;7.15;4.20;;;;;;;;;;5054773;28;20058;-78
2022/04/11 07:39:29;;;;;;;9.90;4.43;;;;;;;;;;5071173;28;20442;-78
2022/04/11 07:41:55;;;;;;;6.68;4.05;;;;;;;;;;5053965;28;20402;-79
2022/04/11 07:44:22;;;;;;;7.50;4.22;;;;;;;;;;5054200;28;20044;-79
2022/04/11 07:46:48;;;;;;;8.68;4.45;;;;;;;;;;5070710;28;20127;-79
2022/04/11 07:49:14;;;;;;;7.28;4.40;;;;;;;;;;5053900;28;20041;-78
2022/04/11 07:51:40;;;;;;;9.20;4.40;;;;;;;;;;5070725;28;20446;-78
2022/04/11 07:54:07;;;;;;;6.97;4.22;;;;;;;;;;5070234;28;20082;-78
2022/04/11 07:56:34;;;;;;;7.15;3.90;;;;;;;;;;5070189;28;20076;-78
2022/04/11 07:59:00;;;;;;;9.02;4.60;;;;;;;;;;5070073;28;20043;-79
2022/04/11 08:01:28;;;;;;;6.97;3.88;;;;;;;;;;5070460;28;20041;-79
2022/04/11 08:03:54;;;;;;;8.23;4.03;;;;;;;;;;5053759;28;20146;-79
2022/04/11 08:06:20;;;;;;;9.60;4.20;;;;;;;;;;5070496;28;20051;-79
2022/04/11 08:08:47;;;;;;;9.25;3.80;;;;;;;;;;5068718;28;20045;-78
2022/04/11 08:11:14;;;;;;;7.50;4.22;;;;;;;;;;5071500;28;20395;-79
2022/04/11 08:13:40;;;;;;;7.43;4.38;;;;;;;;;;5051163;28;20051;-79
2022/04/11 08:16:06;;;;;;;7.80;4.47;;;;;;;;;;5069881;28;20125;-79
2022/04/11 08:18:32;;;;;;;9.07;4.13;;;;;;;;;;5053638;28;20049;-79
2022/04/11 08:20:59;;;;;;;7.85;3.97;;;;;;;;;;5069741;28;20036;-80
2022/04/11 08:23:25;;;;;;;8.48;3.90;;;;;;;;;;5070166;28;20028;-79
2022/04/11 08:25:52;;;;;;;7.47;4.15;;;;;;;;;;5069887;28;20040;-80
2022/04/11 08:28:20;;;;;;;6.97;4.22;;;;;;;;;;5069780;28;20048;-79
2022/04/11 08:30:46;;;;;;;9.05;4.30;;;;;;;;;;5069077;28;20037;-80
2022/04/11 08:33:12;;;;;;;9.02;3.80;;;;;;;;;;5052991;28;20033;-79
2022/04/11 08:35:38;;;;;;;8.45;4.20;;;;;;;;;;5069395;28;20036;-79
2022/04/11 08:38:05;;;;;;;7.57;4.43;;;;;;;;;;5053211;28;20472;-79
2022/04/11 08:40:31;;;;;;;6.35;3.85;;;;;;;;;;5069541;28;20106;-80
2022/04/11 08:42:57;;;;;;;7.10;4.10;;;;;;;;;;5069063;28;20040;-81
2022/04/11 08:45:24;;;;;;;7.93;3.80;;;;;;;;;;5069395;28;20049;-80
2022/04/11 08:47:50;;;;;;;8.57;3.58;;;;;;;;;;5069184;28;20492;-81
2022/04/11 08:50:17;;;;;;;6.97;3.83;;;;;;;;;;5068876;28;20040;-80
2022/04/11 08:52:44;;;;;;;7.68;3.55;;;;;;;;;;5069297;28;20048;-81
2022/04/11 08:55:11;;;;;;;7.57;3.60;;;;;;;;;;5070389;28;20033;-80
2022/04/11 08:57:37;;;;;;;6.88;3.60;;;;;;;;;;5052424;28;20037;-80
2022/04/11 09:00:07;;;;;;;7.07;3.50;;;;;;;;;;5068786;28;20040;-81
2022/04/11 09:02:36;;;;;;;8.60;3.88;;;;;;;;;;5069294;28;20048;-80
2022/04/11 09:05:03;;;;;;;8.38;4.07;;;;;;;;;;5066664;28;20522;-78
2022/04/11 09:07:44;;;;;;;7.93;4.53;;;;;;;;;;5052390;28;20125;-79
2022/04/11 09:10:10;;;;;;;8.05;4.13;;;;;;;;;;5070033;28;20045;-78
2022/04/11 09:12:46;;;;;;;8.38;4.20;;;;;;;;;;5069404;28;20373;-78
2022/04/11 09:15:12;;;;;;;8.40;4.32;;;;;;;;;;5069161;28;20044;-77
2022/04/11 09:17:42;;;;;;;8.63;4.35;;;;;;;;;;5069234;28;20036;-79
2022/04/11 09:20:12;;;;;;;7.25;4.00;;;;;;;;;;5068677;28;20040;-79
2022/04/11 09:22:38;;;;;;;7.22;4.53;;;;;;;;;;5068773;28;20051;-77
2022/04/11 09:25:08;;;;;;;10.43;5.25;;;;;;;;;;5068909;28;20384;-78
2022/04/11 09:27:34;;;;;;;7.72;4.80;;;;;;;;;;5066319;28;20040;-78
2022/04/11 09:30:00;;;;;;;7.05;4.90;;;;;;;;;;5068245;28;20050;-78
2022/04/11 09:32:26;;;;;;;8.25;4.80;;;;;;;;;;5052525;28;20038;-76
2022/04/11 09:34:56;;;;;;;6.43;4.10;;;;;;;;;;5068321;28;20090;-78
2022/04/11 09:37:22;;;;;;;7.80;4.82;;;;;;;;;;5068884;28;20082;-78
2022/04/11 09:39:56;;;;;;;8.23;5.30;;;;;;;;;;5068650;28;20446;-77
2022/04/11 09:42:32;;;;;;;8.07;4.93;;;;;;;;;;5068951;28;20044;-78
2022/04/11 09:45:00;;;;;;;6.70;4.93;;;;;;;;;;5068546;28;20052;-78
2022/04/11 09:47:26;;;;;;;9.45;5.10;;;;;;;;;;5069306;28;20156;-76
2022/04/11 09:49:52;;;;;;;7.57;5.20;;;;;;;;;;5052046;28;20110;-76
2022/04/11 09:52:19;;;;;;;8.65;5.50;;;;;;;;;;5068519;28;20041;-78
2022/04/11 09:54:46;;;;;;;7.38;5.18;;;;;;;;;;5052491;28;20492;-78
2022/04/11 09:57:14;;;;;;;7.18;4.82;;;;;;;;;;5068970;28;20047;-76
2022/04/11 09:59:40;;;;;;;7.10;4.90;;;;;;;;;;5068747;28;20047;-77
2022/04/11 10:02:07;;;;;;;7.20;4.97;;;;;;;;;;5068426;28;20510;-78
2022/04/11 10:04:34;;;;;;;7.07;4.82;;;;;;;;;;5068902;28;20520;-74
2022/04/11 10:07:01;;;;;;;6.72;4.70;;;;;;;;;;5068038;28;20048;-75
2022/04/11 10:09:27;;;;;;;8.05;4.80;;;;;;;;;;5051937;28;20507;-76
2022/04/11 10:11:54;;;;;;;7.28;5.00;;;;;;;;;;5051785;28;20621;-78
2022/04/11 10:14:25;;;;;;;8.63;5.07;;;;;;;;;;5068375;28;20079;-75
2022/04/11 10:16:53;;;;;;;8.32;4.78;;;;;;;;;;5069676;28;20067;-74
2022/04/11 10:19:29;;;;;;;7.00;5.00;;;;;;;;;;5051856;28;20068;-77
2022/04/11 10:21:56;;;;;;;7.45;5.15;;;;;;;;;;5051388;28;20048;-73
2022/04/11 10:24:29;;;;;;;7.45;5.32;;;;;;;;;;5069507;28;20044;-72
2022/04/11 10:26:56;;;;;;;8.75;5.13;;;;;;;;;;5051572;28;20048;-73
2022/04/11 10:29:31;;;;;;;9.57;5.50;;;;;;;;;;5067919;28;20049;-75
2022/04/11 10:32:06;;;;;;;9.45;5.75;;;;;;;;;;5052292;28;20043;-76
2022/04/11 10:34:51;;;;;;;7.63;5.55;;;;;;;;;;5072450;28;20186;-74
2022/04/11 10:37:18;;;;;;;9.10;5.70;;;;;;;;;;5072008;28;20043;-78
2022/04/11 10:39:45;;;;;;;7.03;5.68;;;;;;;;;;5072211;28;20045;-73
2022/04/11 10:42:13;;;;;;;7.72;5.85;;;;;;;;;;5055520;28;20428;-76
2022/04/11 10:44:43;;;;;;;8.30;6.00;;;;;;;;;;5071612;28;20052;-77
2022/04/11 10:47:12;;;;;;;9.85;6.03;;;;;;;;;;5071752;28;20047;-75
2022/04/11 10:49:50;;;;;;;9.05;6.85;;;;;;;;;;5055210;28;20043;-76
2022/04/11 10:52:29;;;;;;;8.93;6.25;;;;;;;;;;5071146;28;20047;-76
2022/04/11 10:55:14;;;;;;;8.25;7.03;;;;;;;;;;5072246;28;20047;-77
2022/04/11 10:57:48;;;;;;;10.35;6.75;;;;;;;;;;5071909;28;20068;-76
2022/04/11 11:00:15;;;;;;;9.45;6.60;;;;;;;;;;5072365;28;20052;-74
2022/04/11 11:02:53;;;;;;;8.95;6.60;;;;;;;;;;5071755;28;20044;-74
2022/04/11 11:05:42;;;;;;;9.15;6.57;;;;;;;;;;5071903;28;20090;-73
2022/04/11 11:08:11;;;;;;;11.27;7.10;;;;;;;;;;5063528;28;20058;-77
2022/04/11 11:10:44;;;;;;;9.50;6.93;;;;;;;;;;5071320;28;20048;-77
2022/04/11 11:13:30;;;;;;;9.25;6.57;;;;;;;;;;5071467;28;20422;-76
2022/04/11 11:16:00;;;;;;;9.93;7.07;;;;;;;;;;5071005;28;20365;-76
2022/04/11 11:18:46;;;;;;;9.90;7.10;;;;;;;;;;5071516;28;20380;-77
2022/04/11 11:21:12;;;;;;;8.55;6.88;;;;;;;;;;5070628;28;20119;-74
2022/04/11 11:23:38;;;;;;;11.30;7.38;;;;;;;;;;5055147;28;20045;-77
2022/04/11 11:26:12;;;;;;;9.75;7.32;;;;;;;;;;5071333;28;20095;-77
2022/04/11 11:28:41;;;;;;;9.70;7.50;;;;;;;;;;5054222;28;20045;-77
2022/04/11 11:31:07;;;;;;;11.02;7.35;;;;;;;;;;5066241;28;20044;-76
2022/04/11 11:33:33;;;;;;;10.05;7.47;;;;;;;;;;5054456;28;20434;-77
2022/04/11 11:36:01;;;;;;;10.32;7.32;;;;;;;;;;5070676;28;20049;-76
2022/04/11 11:38:28;;;;;;;11.38;7.80;;;;;;;;;;5071024;28;20033;-75
2022/04/11 11:40:59;;;;;;;10.82;8.38;;;;;;;;;;5071084;28;20043;-75
2022/04/11 11:43:26;;;;;;;10.90;7.55;;;;;;;;;;5070072;28;20048;-77
2022/04/11 11:45:52;;;;;;;9.63;7.65;;;;;;;;;;5072603;28;20040;-74
2022/04/11 11:48:22;;;;;;;10.30;8.25;;;;;;;;;;5071063;28;20050;-77
2022/04/11 11:50:48;;;;;;;11.38;7.80;;;;;;;;;;5070324;28;20515;-74
2022/04/11 11:53:14;;;;;;;11.20;7.95;;;;;;;;;;5070224;28;20040;-75
2022/04/11 11:55:59;;;;;;;12.30;8.57;;;;;;;;;;5070525;28;20032;-76
2022/04/11 11:58:35;;;;;;;10.27;8.20;;;;;;;;;;5071000;28;20547;-76
2022/04/11 12:01:01;;;;;;;;;;;;;;;;;;5070990;28;20052;-76
2022/04/11 12:06:12;;;;;;;11.77;8.48;;;;;;;;;;5070724;28;20119;-76
2022/04/11 12:08:38;;;;;;;12.50;8.90;;;;;;;;;;5070828;28;20369;-76
2022/04/11 12:11:04;;;;;;;10.98;7.82;;;;;;;;;;5070748;28;20043;-76
2022/04/11 12:13:31;;;;;;;12.45;8.40;;;;;;;;;;5070712;28;20427;-76
2022/04/11 12:16:11;;;;;;;12.65;8.52;;;;;;;;;;5070627;28;20089;-75
2022/04/11 12:18:47;;;;;;;10.82;7.63;;;;;;;;;;5069210;28;20484;-74
2022/04/11 12:21:14;;;;;;;11.52;7.88;;;;;;;;;;5070918;28;20438;-75
2022/04/11 12:23:47;;;;;;;11.88;7.78;;;;;;;;;;5070366;28;20041;-76
2022/04/11 12:26:23;;;;;;;11.57;8.00;;;;;;;;;;5072431;28;20046;-76
2022/04/11 12:28:49;;;;;;;11.15;7.53;;;;;;;;;;5054035;28;20503;-75
2022/04/11 12:31:18;;;;;;;11.05;7.30;;;;;;;;;;5070645;28;20028;-73
2022/04/11 12:33:46;;;;;;;12.27;7.00;;;;;;;;;;5068339;28;20488;-74
2022/04/11 12:36:16;;;;;;;11.35;7.18;;;;;;;;;;5071886;28;20075;-73
2022/04/11 12:38:47;;;;;;;11.18;7.18;;;;;;;;;;5070797;28;20083;-76
2022/04/11 12:41:32;;;;;;;9.93;7.93;;;;;;;;;;5053474;28;20511;-73
2022/04/11 12:44:17;;;;;;;11.32;7.25;;;;;;;;;;5069452;28;20084;-75
2022/04/11 12:46:44;;;;;;;12.10;8.13;;;;;;;;;;5068987;28;20041;-74
2022/04/11 12:49:13;;;;;;;10.80;7.00;;;;;;;;;;5070247;28;20044;-74
2022/04/11 12:51:39;;;;;;;10.63;7.13;;;;;;;;;;5070421;28;20051;-75
2022/04/11 12:54:05;;;;;;;10.05;7.28;;;;;;;;;;5052855;28;20492;-75
2022/04/11 12:56:49;;;;;;;11.07;7.40;;;;;;;;;;5070157;28;20083;-75
2022/04/11 12:59:36;;;;;;;10.10;7.78;;;;;;;;;;5069743;28;20076;-75
2022/04/11 13:02:02;;;;;;;;;;;;;;;;;;5070088;28;20040;-75
2022/04/11 13:04:28;;;;;;;10.93;7.85;;;;;;;;;;5069976;28;19991;-75
2022/04/11 13:06:54;;;;;;;9.82;7.22;;;;;;;;;;5053015;28;20036;-74
2022/04/11 13:09:21;;;;;;;11.05;8.15;;;;;;;;;;5053186;28;20048;-75
2022/04/11 13:11:48;;;;;;;13.57;8.30;;;;;;;;;;5069661;28;20033;-75
2022/04/11 13:14:14;;;;;;;13.85;7.05;;;;;;;;;;5053243;28;20063;-73
2022/04/11 13:19:25;;;;;;;10.32;8.52;;;;;;;;;;5069312;28;20040;-76
2022/04/11 13:21:51;;;;;;;12.52;8.50;;;;;;;;;;5052795;28;20044;-74
2022/04/11 13:24:18;;;;;;;12.55;9.15;;;;;;;;;;5069899;28;20044;-75
2022/04/11 13:26:44;;;;;;;11.77;8.80;;;;;;;;;;5053432;28;20106;-75
2022/04/11 13:29:10;;;;;;;11.32;8.60;;;;;;;;;;5069467;28;20032;-76
2022/04/11 13:31:37;;;;;;;10.98;8.32;;;;;;;;;;5052989;28;20041;-72
2022/04/11 13:34:03;;;;;;;11.63;7.82;;;;;;;;;;5069311;28;20369;-73
2022/04/11 13:36:32;;;;;;;13.45;8.30;;;;;;;;;;5070144;28;20040;-73
2022/04/11 13:38:58;;;;;;;13.35;8.35;;;;;;;;;;5068952;28;20033;-76
2022/04/11 13:41:24;;;;;;;11.00;8.27;;;;;;;;;;5052841;28;20059;-74
2022/04/11 13:43:50;;;;;;;12.48;8.52;;;;;;;;;;5070710;28;20064;-73
2022/04/11 13:46:16;;;;;;;15.50;9.23;;;;;;;;;;5052441;28;20482;-74
2022/04/11 13:48:42;;;;;;;19.23;9.20;;;;;;;;;;5068970;28;20040;-74
2022/04/11 13:51:09;;;;;;;11.35;8.07;;;;;;;;;;5051904;28;20123;-79
2022/04/11 13:53:35;;;;;;;11.43;7.88;;;;;;;;;;5068792;28;20040;-75
2022/04/11 13:56:01;;;;;;;9.38;6.88;;;;;;;;;;5069326;28;20048;-73
2022/04/11 13:58:27;;;;;;;12.60;8.60;;;;;;;;;;5069109;28;20496;-73
2022/04/11 14:00:53;;;;;;;12.63;8.43;;;;;;;;;;5069685;28;20078;-75
2022/04/11 14:03:19;;;;;;;13.13;8.98;;;;;;;;;;5068619;28;20127;-74
2022/04/11 14:05:45;;;;;;;12.82;9.25;;;;;;;;;;5068527;28;20505;-73
2022/04/11 14:08:12;;;;;;;13.48;9.25;;;;;;;;;;5070086;28;20484;-73
2022/04/11 14:10:39;;;;;;;12.77;9.38;;;;;;;;;;5068190;28;20098;-75
2022/04/11 14:13:05;;;;;;;12.98;9.18;;;;;;;;;;5051633;28;20036;-72
2022/04/11 14:15:31;;;;;;;12.35;8.93;;;;;;;;;;5052055;28;20090;-74
2022/04/11 14:17:57;;;;;;;13.82;9.40;;;;;;;;;;5052146;28;20040;-74
2022/04/11 14:20:24;;;;;;;15.38;9.02;;;;;;;;;;5069150;28;20434;-74
2022/04/11 14:22:50;;;;;;;15.52;9.82;;;;;;;;;;5068145;28;20044;-73
2022/04/11 14:25:16;;;;;;;13.02;9.63;;;;;;;;;;5052208;28;20040;-74
2022/04/11 14:27:42;;;;;;;14.48;9.75;;;;;;;;;;5068559;28;20072;-74
2022/04/11 14:30:08;;;;;;;12.98;9.68;;;;;;;;;;5068145;28;20420;-75
2022/04/11 14:32:35;;;;;;;11.07;8.85;;;;;;;;;;5068767;28;20063;-74
2022/04/11 14:35:01;;;;;;;15.52;9.63;;;;;;;;;;5068138;28;20036;-77
2022/04/11 14:37:27;;;;;;;13.65;9.98;;;;;;;;;;5069487;28;20389;-74
2022/04/11 14:39:53;;;;;;;15.73;8.88;;;;;;;;;;5051825;28;20496;-79
2022/04/11 14:42:19;;;;;;;16.98;10.52;;;;;;;;;;5052340;28;20048;-73
2022/04/11 14:44:45;;;;;;;15.32;9.77;;;;;;;;;;5068067;28;20143;-74
2022/04/11 14:47:14;;;;;;;15.00;10.38;;;;;;;;;;5067785;28;20040;-74